Angora, MN

6:32 PM CDT on October 13, 2019 (GMT -0500)
Angora | | Change Station

Elev 1381 ft 47.72 °N, 92.65 °W | Updated 1 minute ago

Overcast
Overcast
34.7 °F
Feels Like 35 °F
N
2.46
Wind Variable Wind from West
Gusts 2.5 mph

Today
High -- | Low -- °F
--% Chance of Precip.
Yesterday
High -- | Low -- °F
Precip. -- in
Pressure 29.74 in
Visibility 10.0 miles
Clouds Mostly Cloudy 1600 ft
Mostly Cloudy 2900 ft
Mostly Cloudy 9500 ft
Windchill 35 °F
Dew Point 33 °F
Humidity 95%
Rainfall 0.18 in
Snow Depth Not available.
7:26 AM 6:26 PM
Full, 100% visible
METAR KCQM 132316Z AUTO 27007KT 10SM BKN016 BKN029 BKN095 02/01 A2974 RMK AO2
Pressure 29.74 in
Visibility 10.0 miles
Clouds Mostly Cloudy 1600 ft
Mostly Cloudy 2900 ft
Mostly Cloudy 9500 ft
Windchill 35 °F
Dew Point 33 °F
Humidity 95%
Rainfall 0.18 in
Snow Depth Not available.
7:26 AM 6:26 PM
Full, 100% visible
METAR KCQM 132316Z AUTO 27007KT 10SM BKN016 BKN029 BKN095 02/01 A2974 RMK AO2

Get Severe Weather Alerts

Thanks for signing up!

Be on the lookout for a verification email in your inbox.

You'll start receiving the daily forecast at 6 AM.

×

10-Day Weather Forecast

Almanac

Astronomy

Oct. 13, 2019 Rise Set
Actual Time
Civil Twilight
Nautical Twilight
Astronomical Twilight
Moon
Length of Visible Light
Length of Day
Tomorrow will be .
, % of the Moon is Illuminated

Today's Extremes

State Highs State Lows

Community

WunderPhotos

Category 6

Welcome to Category 6. This is the collective home for Weather Underground's featured writeups by Dr. Jeff Masters (right), Bob Henson (left), Chris Burt, and other regular contributors.

Nearby

Air Quality

  Air Quality AQ Index Pollutant
Not available.

Snow Depth

Station Depth Elevation

Earthquake Activity

City Distance Mag. Time & Date
Minimum magnitude displayed is 2.5.

Coastal Water Temperatures

Place Temperature

Stations

Nearby Weather Stations

Station Location Temp. Windchill Dew Point Humidity Wind Precip. Elev Updated Type
                   

Watches & Warnings

There are currently no watches in effect.